KFCS/FCS METAR and TAF weather

Enter ICAO airport designator
Station Type Date Time Source
KFCS METAR 2020/01/24 02:58 UTC NOAA

KFCS 240258Z AUTO 23005KT 10SM CLR M01/M11 A3009 RMK AO2 SLPNO T10081110 50008 $


Station Type Date Time Source
KFCS Decoded METAR 2020/01/24 02:58 UTC NOAA

Fort Carson, CO, United States (KFCS) 38-42N 104-46W 1789M
Jan 23, 2020 - 09:58 PM EST / 2020.01.24 0258 UTC
Wind: from the SW (230 degrees) at 6 MPH (5 KT):0
Visibility: 10 mile(s):0
Sky conditions: clear
Temperature: 30.6 F (-0.8 C)
Windchill: 24 F (-4 C):1
Dew Point: 12.2 F (-11.0 C)
Relative Humidity: 45%
Pressure (altimeter): 30.09 in. Hg (1018 hPa)
Pressure tendency: 0.02 inches (0.8 hPa) higher than three hours ago
ob: KFCS 240258Z AUTO 23005KT 10SM CLR M01/M11 A3009 RMK AO2 SLPNO T10081110 50008
cycle: 3

Station Type Date Time Source
KFCS TAF 2020/01/23 21:06 UTC NOAA

TAF TAF KFCS 232101Z 2321/2503 VRB06KT 9999 SCT070 SCT100 QNH3004INS
BECMG 2411/2412 32009KT 9999 SKC QNH3003INS
BECMG 2420/2421 VRB06KT 9999 FEW100 QNH2994INS TX06/2321Z TNM07/2412Z

Example: see airport list